createdAt,value
2019-05-10T00:01:04.252Z,97761.29
2019-05-10T00:03:52.794Z,97763.70
2019-05-10T00:06:41.541Z,97758.81
2019-05-10T00:09:11.443Z,97759.58
2019-05-10T00:11:43.798Z,97760.39
2019-05-10T00:14:32.332Z,97763.13
2019-05-10T00:17:04.747Z,97763.17
2019-05-10T00:19:35.376Z,97766.22
2019-05-10T00:22:05.803Z,97764.47
2019-05-10T00:24:36.170Z,97767.92
2019-05-10T00:27:06.613Z,97771.34
2019-05-10T00:29:37.245Z,97768.28
2019-05-10T00:32:07.870Z,97774.79
2019-05-10T00:34:41.423Z,97763.44
2019-05-10T00:37:12.891Z,97760.89
2019-05-10T00:39:43.358Z,97765.78
2019-05-10T00:42:14.913Z,97764.70
2019-05-10T00:44:45.436Z,97765.05
2019-05-10T00:47:16.943Z,97760.63
2019-05-10T00:49:47.415Z,97760.13
2019-05-10T00:52:17.688Z,97765.33
2019-05-10T00:54:48.274Z,97764.43
2019-05-10T00:57:18.900Z,97771.25
2019-05-10T00:59:49.471Z,97771.52
2019-05-10T01:02:20.135Z,97773.56
2019-05-10T01:04:50.522Z,97770.38
2019-05-10T01:07:21.650Z,97772.40
2019-05-10T01:09:52.259Z,97769.61
2019-05-10T01:12:22.604Z,97768.61
2019-05-10T01:14:53.323Z,97772.83
2019-05-10T01:17:23.978Z,97764.84
2019-05-10T01:19:54.627Z,97767.16
2019-05-10T01:22:25.111Z,97766.25
2019-05-10T01:24:55.789Z,97767.91
2019-05-10T01:27:26.476Z,97767.42
2019-05-10T01:29:57.101Z,97763.52
2019-05-10T01:32:27.986Z,97768.34
2019-05-10T01:34:58.468Z,97767.84
2019-05-10T01:37:29.144Z,97769.21
2019-05-10T01:39:59.740Z,97763.67
2019-05-10T01:42:30.612Z,97767.42
2019-05-10T01:45:01.037Z,97766.86
2019-05-10T01:47:31.359Z,97771.33
2019-05-10T01:50:02.098Z,97769.78
2019-05-10T01:52:32.887Z,97775.03
2019-05-10T01:55:04.202Z,97775.03
2019-05-10T01:57:35.071Z,97779.69
2019-05-10T02:00:06.370Z,97778.73
2019-05-10T02:02:37.269Z,97779.33
2019-05-10T02:05:08.095Z,97781.58
2019-05-10T02:07:38.889Z,97782.67
2019-05-10T02:10:09.708Z,97790.45
2019-05-10T02:12:40.086Z,97790.52
2019-05-10T02:15:10.512Z,97793.86
2019-05-10T02:17:41.358Z,97797.05
2019-05-10T02:20:11.925Z,97800.64
2019-05-10T02:22:42.609Z,97800.16
2019-05-10T02:25:14.382Z,97805.25
2019-05-10T02:27:45.208Z,97804.30
2019-05-10T02:30:15.652Z,97808.19
2019-05-10T02:32:46.781Z,97811.17
2019-05-10T02:35:17.253Z,97820.61
2019-05-10T02:37:48.284Z,97823.20
2019-05-10T02:40:18.858Z,97823.88
2019-05-10T02:42:49.649Z,97822.14
2019-05-10T02:45:20.463Z,97824.62
2019-05-10T02:47:50.973Z,97825.80
2019-05-10T02:50:21.704Z,97828.39
2019-05-10T02:52:52.134Z,97829.94
2019-05-10T02:55:22.908Z,97825.20
2019-05-10T02:57:53.602Z,97834.31
2019-05-10T03:00:24.510Z,97833.69
2019-05-10T03:02:55.682Z,97832.09
2019-05-10T03:05:27.219Z,97834.95
2019-05-10T03:07:58.238Z,97834.71
2019-05-10T03:10:30.652Z,97832.95
2019-05-10T03:13:02.571Z,97830.25
2019-05-10T03:15:36.277Z,97833.09
2019-05-10T03:18:06.662Z,97835.37
2019-05-10T03:20:38.015Z,97836.91
2019-05-10T03:23:09.304Z,97830.60
2019-05-10T03:25:39.545Z,97832.98
2019-05-10T03:28:10.288Z,97834.53
2019-05-10T03:30:41.034Z,97831.71
2019-05-10T03:33:12.010Z,97844.08
2019-05-10T03:35:42.533Z,97845.62
2019-05-10T03:38:13.332Z,97843.86
2019-05-10T03:40:43.992Z,97847.06
2019-05-10T03:43:14.793Z,97843.33
2019-05-10T03:45:45.455Z,97842.63
2019-05-10T03:48:17.990Z,97847.73
2019-05-10T03:50:48.731Z,97847.00
2019-05-10T03:53:19.306Z,97848.06
2019-05-10T03:55:51.375Z,97851.41
2019-05-10T03:58:23.825Z,97850.95
2019-05-10T04:00:54.546Z,97848.87
2019-05-10T04:03:28.144Z,97854.27
2019-05-10T04:05:59.529Z,97849.76
2019-05-10T04:08:30.265Z,97850.84
2019-05-10T04:11:00.921Z,97857.66
2019-05-10T04:13:31.584Z,97860.98
2019-05-10T04:16:02.254Z,97857.63
2019-05-10T04:18:32.704Z,97866.68
2019-05-10T04:21:03.424Z,97863.54
2019-05-10T04:23:34.109Z,97866.29
2019-05-10T04:26:04.711Z,97867.59
2019-05-10T04:28:40.471Z,97871.38
2019-05-10T04:31:11.236Z,97874.33
2019-05-10T04:33:41.757Z,97870.02
2019-05-10T04:36:13.103Z,97870.12
2019-05-10T04:38:43.622Z,97873.23
2019-05-10T04:41:14.319Z,97873.81
2019-05-10T04:43:44.992Z,97883.69
2019-05-10T04:46:15.773Z,97875.83
2019-05-10T04:48:45.962Z,97888.13
2019-05-10T04:51:16.580Z,97883.36
2019-05-10T04:53:47.112Z,97886.21
2019-05-10T04:56:19.439Z,97892.08
2019-05-10T04:58:49.785Z,97891.64
2019-05-10T05:01:20.352Z,97886.20
2019-05-10T05:03:50.980Z,97887.64
2019-05-10T05:06:21.711Z,97894.81
2019-05-10T05:08:51.965Z,97894.01
2019-05-10T05:11:22.325Z,97892.06
2019-05-10T05:13:52.942Z,97885.84
2019-05-10T05:16:23.448Z,97890.44
2019-05-10T05:18:54.011Z,97889.63
2019-05-10T05:21:24.583Z,97884.31
2019-05-10T05:23:55.166Z,97884.84
2019-05-10T05:26:26.660Z,97884.55
2019-05-10T05:28:57.076Z,97891.02
2019-05-10T05:31:27.610Z,97892.52
2019-05-10T05:33:59.176Z,97892.00
2019-05-10T05:36:30.344Z,97899.28
2019-05-10T05:39:00.691Z,97900.20
2019-05-10T05:41:47.802Z,97899.51
2019-05-10T05:44:11.612Z,97906.25
2019-05-10T05:46:41.936Z,97910.73
2019-05-10T05:49:12.466Z,97913.78
2019-05-10T05:51:55.966Z,97908.09
2019-05-10T05:54:26.327Z,97916.64
2019-05-10T05:56:56.976Z,97914.78
2019-05-10T05:59:27.533Z,97917.56
2019-05-10T06:02:00.876Z,97908.22
2019-05-10T06:04:30.430Z,97914.05
2019-05-10T06:07:00.905Z,97915.66
2019-05-10T06:09:31.973Z,97915.86
2019-05-10T06:12:07.383Z,97918.56
2019-05-10T06:14:42.980Z,97918.94
2019-05-10T06:17:09.319Z,97919.16
2019-05-10T06:19:39.903Z,97919.41
2019-05-10T06:22:10.749Z,97920.72
2019-05-10T06:24:41.068Z,97918.57
2019-05-10T06:27:11.905Z,97926.14
2019-05-10T06:29:43.217Z,97928.85
2019-05-10T06:32:14.031Z,97921.77
2019-05-10T06:34:44.207Z,97923.75
2019-05-10T06:37:14.984Z,97924.73
2019-05-10T06:39:45.570Z,97926.62
2019-05-10T06:42:15.878Z,97925.38
2019-05-10T06:44:47.637Z,97936.23
2019-05-10T06:47:21.519Z,97932.86
2019-05-10T06:49:52.301Z,97926.23
2019-05-10T06:52:27.756Z,97932.14
2019-05-10T06:54:58.525Z,97935.55
2019-05-10T06:57:27.172Z,97940.95
2019-05-10T07:00:06.190Z,97934.98
2019-05-10T07:02:32.511Z,97935.97
2019-05-10T07:05:02.579Z,97940.59
2019-05-10T07:07:43.694Z,97947.63
2019-05-10T07:10:17.631Z,97940.56
2019-05-10T07:12:38.951Z,97947.86
2019-05-10T07:15:09.513Z,97938.69
2019-05-10T07:17:43.630Z,97945.84
2019-05-10T07:20:12.060Z,97946.86
2019-05-10T07:22:42.257Z,97947.63
2019-05-10T07:25:12.910Z,97940.95
2019-05-10T07:27:44.277Z,97955.81
2019-05-10T07:30:16.594Z,97956.27
2019-05-10T07:32:49.155Z,97953.09
2019-05-10T07:35:20.156Z,97957.25
2019-05-10T07:37:51.903Z,97954.89
2019-05-10T07:40:22.889Z,97957.02
2019-05-10T07:42:53.358Z,97965.58
2019-05-10T07:45:25.511Z,97966.98
2019-05-10T07:47:56.174Z,97967.47
2019-05-10T07:50:26.710Z,97963.85
2019-05-10T07:52:58.131Z,97971.05
2019-05-10T07:55:30.149Z,97971.84
2019-05-10T07:58:04.939Z,97975.09
2019-05-10T08:00:38.057Z,97965.45
2019-05-10T08:03:15.803Z,97971.46
2019-05-10T08:05:39.286Z,97976.75
2019-05-10T08:08:12.074Z,97975.66
2019-05-10T08:10:44.136Z,97977.02
2019-05-10T08:13:15.332Z,97977.36
2019-05-10T08:15:48.926Z,97979.66
2019-05-10T08:18:21.176Z,97980.38
2019-05-10T08:20:58.175Z,97981.48
2019-05-10T08:23:27.787Z,97978.48
2019-05-10T08:25:56.982Z,97973.58
2019-05-10T08:28:27.839Z,97979.61
2019-05-10T08:31:02.492Z,97983.15
2019-05-10T08:33:32.791Z,97977.68
2019-05-10T08:36:05.510Z,97976.80
2019-05-10T08:38:39.710Z,97983.50
2019-05-10T08:41:13.227Z,97985.66
2019-05-10T08:43:42.838Z,97986.66
2019-05-10T08:46:12.225Z,97982.25
2019-05-10T08:48:50.177Z,97978.94
2019-05-10T08:51:15.689Z,97981.13
2019-05-10T08:53:51.849Z,97983.82
2019-05-10T08:56:23.419Z,97978.28
2019-05-10T08:58:53.340Z,97988.93
2019-05-10T09:01:29.668Z,97985.91
2019-05-10T09:04:00.782Z,97988.31
2019-05-10T09:06:32.557Z,97986.95
2019-05-10T09:09:02.009Z,97988.22
2019-05-10T09:11:33.177Z,97993.70
2019-05-10T09:14:12.319Z,97996.56
2019-05-10T09:16:46.207Z,97997.23
2019-05-10T09:19:12.493Z,97993.45
2019-05-10T09:21:49.848Z,97992.34
2019-05-10T09:24:26.164Z,97992.39
2019-05-10T09:26:57.311Z,97995.34
2019-05-10T09:29:35.228Z,97997.14
2019-05-10T09:32:04.051Z,97996.98
2019-05-10T09:34:34.015Z,97990.46
2019-05-10T09:37:08.016Z,97989.47
2019-05-10T09:39:37.178Z,97998.35
2019-05-10T09:42:10.920Z,97999.05
2019-05-10T09:44:45.582Z,98008.22
2019-05-10T09:47:14.701Z,98004.05
2019-05-10T09:49:55.788Z,97997.98
2019-05-10T09:52:19.064Z,97998.81
2019-05-10T09:54:52.603Z,97997.20
2019-05-10T09:57:23.307Z,97996.81
2019-05-10T09:59:57.112Z,98003.21
2019-05-10T10:02:33.467Z,97995.71
2019-05-10T10:04:59.259Z,97995.53
2019-05-10T10:07:33.547Z,97994.20
2019-05-10T10:10:02.073Z,97995.55
2019-05-10T10:12:34.372Z,97996.98
2019-05-10T10:15:09.353Z,97997.33
2019-05-10T10:17:42.120Z,97995.95
2019-05-10T10:20:11.925Z,97992.34
2019-05-10T10:22:43.444Z,97983.69
2019-05-10T10:25:17.558Z,97998.16
2019-05-10T10:27:48.024Z,97999.06
2019-05-10T10:30:21.514Z,97995.56
2019-05-10T10:32:51.904Z,98001.42
2019-05-10T10:35:26.959Z,97995.05
2019-05-10T10:38:05.227Z,97996.45
2019-05-10T10:40:44.538Z,98001.02
2019-05-10T10:43:12.121Z,98004.84
2019-05-10T10:45:43.810Z,97997.57
2019-05-10T10:48:17.815Z,98012.22
2019-05-10T10:50:53.908Z,98009.64
2019-05-10T10:53:21.404Z,98004.98
2019-05-10T10:55:54.354Z,98005.16
2019-05-10T10:58:24.511Z,98010.62
2019-05-10T11:00:56.406Z,98004.75
2019-05-10T11:03:30.204Z,98007.19
2019-05-10T11:05:59.414Z,98003.70
2019-05-10T11:08:32.876Z,98005.91
2019-05-10T11:11:02.592Z,98005.66
2019-05-10T11:13:43.959Z,97996.98
2019-05-10T11:16:10.795Z,98001.88
2019-05-10T11:18:41.837Z,97996.06
2019-05-10T11:21:12.510Z,97999.30
2019-05-10T11:23:44.681Z,97996.02
2019-05-10T11:26:16.735Z,97995.55
2019-05-10T11:28:47.334Z,97990.44
2019-05-10T11:31:21.261Z,98000.89
2019-05-10T11:33:58.234Z,97996.73
2019-05-10T11:36:24.763Z,98000.59
2019-05-10T11:38:58.429Z,97989.16
2019-05-10T11:41:27.369Z,97981.87
2019-05-10T11:44:05.620Z,97994.42
2019-05-10T11:46:32.205Z,97990.84
2019-05-10T11:49:02.819Z,97989.94
2019-05-10T11:51:33.610Z,97988.23
2019-05-10T11:54:04.139Z,97989.42
2019-05-10T11:56:34.549Z,97985.55
2019-05-10T11:59:05.826Z,97982.27
2019-05-10T12:01:41.450Z,97979.49
2019-05-10T12:04:13.172Z,97980.30
2019-05-10T12:06:50.057Z,97987.60
2019-05-10T12:09:13.635Z,97997.42
2019-05-10T12:14:16.423Z,97984.72
2019-05-10T12:16:48.770Z,97991.19
2019-05-10T12:19:21.263Z,97985.91
2019-05-10T12:21:56.112Z,97992.53
2019-05-10T12:24:45.175Z,97991.20
2019-05-10T12:26:15.807Z,97982.56
2019-05-10T12:27:22.518Z,97987.42
2019-05-10T12:29:31.649Z,97994.81
2019-05-10T12:32:03.884Z,97979.02
2019-05-10T12:34:34.684Z,97989.87
2019-05-10T12:37:10.289Z,97993.34
2019-05-10T12:39:41.573Z,97996.56
2019-05-10T12:42:14.336Z,97990.03
2019-05-10T12:44:47.993Z,97997.02
2019-05-10T12:47:18.519Z,97989.16
2019-05-10T12:49:53.849Z,97994.81
2019-05-10T12:52:28.462Z,97995.24
2019-05-10T12:54:55.990Z,97988.55
2019-05-10T12:57:28.631Z,97991.14
2019-05-10T13:00:12.896Z,97995.17
2019-05-10T13:02:51.085Z,97992.19
2019-05-10T13:05:30.793Z,97993.59
2019-05-10T13:08:06.301Z,97993.86
2019-05-10T13:10:37.124Z,97997.88
2019-05-10T13:13:10.258Z,98003.44
2019-05-10T13:15:40.821Z,97993.37
2019-05-10T13:18:11.673Z,97996.20
2019-05-10T13:20:47.629Z,97994.23
2019-05-10T13:23:18.555Z,98002.54
2019-05-10T13:25:49.075Z,98002.51
2019-05-10T13:28:19.699Z,98003.47
2019-05-10T13:30:53.778Z,98008.19
2019-05-10T13:33:29.162Z,98007.87
2019-05-10T13:36:01.049Z,98006.45
2019-05-10T13:38:36.755Z,98012.37
2019-05-10T13:41:07.278Z,98007.50
2019-05-10T13:43:37.458Z,98010.63
2019-05-10T13:46:08.137Z,98010.68
2019-05-10T13:48:38.808Z,98012.75
2019-05-10T13:51:09.241Z,98018.94
2019-05-10T13:53:39.717Z,98016.95
2019-05-10T13:56:10.351Z,98013.06
2019-05-10T13:58:41.201Z,98019.37
2019-05-10T14:01:13.013Z,98011.42
2019-05-10T14:03:48.737Z,98014.50
2019-05-10T14:06:16.995Z,98024.48
2019-05-10T14:08:50.457Z,98023.34
2019-05-10T14:11:19.734Z,98015.34
2019-05-10T14:13:51.577Z,98019.66
2019-05-10T14:16:22.667Z,98021.36
2019-05-10T14:18:54.393Z,98016.88
2019-05-10T14:21:24.977Z,98022.16
2019-05-10T14:23:57.021Z,98019.09
2019-05-10T14:26:27.907Z,98025.17
2019-05-10T14:28:58.407Z,98022.81
2019-05-10T14:31:29.326Z,98018.24
2019-05-10T14:34:14.791Z,98022.67
2019-05-10T14:36:34.283Z,98022.66
2019-05-10T14:39:06.550Z,98025.66
2019-05-10T14:41:39.777Z,98018.20
2019-05-10T14:44:08.661Z,98017.28
2019-05-10T14:46:39.171Z,98018.57
2019-05-10T14:49:11.579Z,98016.39
2019-05-10T14:51:57.731Z,98019.12
2019-05-10T14:54:15.979Z,98022.20
2019-05-10T14:56:46.396Z,98024.84
2019-05-10T14:59:18.179Z,98024.42
2019-05-10T15:01:48.863Z,98029.70
2019-05-10T15:04:43.918Z,98026.61
2019-05-10T15:06:52.505Z,98032.36
2019-05-10T15:09:24.550Z,98034.09
2019-05-10T15:11:55.246Z,98033.22
2019-05-10T15:14:25.742Z,98036.75
2019-05-10T15:16:56.357Z,98034.98
2019-05-10T15:19:31.203Z,98038.47
2019-05-10T15:22:00.188Z,98033.98
2019-05-10T15:24:30.831Z,98036.58
2019-05-10T15:27:01.217Z,98035.72
2019-05-10T15:29:31.982Z,98036.61
2019-05-10T15:32:02.753Z,98039.64
2019-05-10T15:34:33.199Z,98037.42
2019-05-10T15:37:09.222Z,98029.02
2019-05-10T15:39:36.445Z,98035.55
2019-05-10T15:42:08.948Z,98034.23
2019-05-10T15:44:39.647Z,98034.23
2019-05-10T15:47:14.684Z,98035.48
2019-05-10T15:49:44.431Z,98032.42
2019-05-10T15:52:17.832Z,98037.09
2019-05-10T15:54:49.359Z,98034.44
2019-05-10T15:57:21.696Z,98036.38
2019-05-10T15:59:56.928Z,98040.20
2019-05-10T16:02:30.194Z,98035.59
2019-05-10T16:05:00.727Z,98030.91
2019-05-10T16:07:31.286Z,98040.30
2019-05-10T16:10:01.951Z,98043.37
2019-05-10T16:12:32.481Z,98042.88
2019-05-10T16:15:13.481Z,98045.06
2019-05-10T16:17:41.158Z,98046.09
2019-05-10T16:20:12.648Z,98045.77
2019-05-10T16:22:43.003Z,98056.27
2019-05-10T16:25:13.515Z,98056.74
2019-05-10T16:27:48.072Z,98055.91
2019-05-10T16:30:20.777Z,98054.89
2019-05-10T16:32:52.377Z,98055.02
2019-05-10T16:35:31.281Z,98064.75
2019-05-10T16:37:55.229Z,98062.14
2019-05-10T16:40:30.434Z,98071.27
2019-05-10T16:43:01.385Z,98075.48
2019-05-10T16:45:32.026Z,98069.32
2019-05-10T16:48:05.575Z,98080.13
2019-05-10T16:50:34.965Z,98077.80
2019-05-10T16:53:07.963Z,98086.73
2019-05-10T16:55:41.053Z,98086.92
2019-05-10T16:58:15.158Z,98078.88
2019-05-10T17:00:46.126Z,98094.62
2019-05-10T17:03:18.219Z,98098.78
2019-05-10T17:05:53.587Z,98102.19
2019-05-10T17:08:20.572Z,98096.48
2019-05-10T17:10:51.056Z,98094.77
2019-05-10T17:13:21.870Z,98092.80
2019-05-10T17:15:52.150Z,98095.67
2019-05-10T17:18:24.209Z,98089.27
2019-05-10T17:20:55.125Z,98088.43
2019-05-10T17:23:27.571Z,98098.94
2019-05-10T17:25:57.949Z,98096.37
2019-05-10T17:28:29.577Z,98104.86
2019-05-10T17:31:07.836Z,98104.63
2019-05-10T17:33:36.640Z,98113.29
2019-05-10T17:36:08.839Z,98112.36
2019-05-10T17:38:39.512Z,98121.53
2019-05-10T17:41:10.055Z,98132.98
2019-05-10T17:43:40.573Z,98141.35
2019-05-10T17:46:18.891Z,98146.22
2019-05-10T17:48:49.370Z,98155.79
2019-05-10T17:51:19.022Z,98155.76
2019-05-10T17:53:55.056Z,98168.16
2019-05-10T17:56:21.715Z,98174.15
2019-05-10T17:58:54.696Z,98171.80
2019-05-10T18:01:25.570Z,98175.56
2019-05-10T18:03:57.533Z,98176.42
2019-05-10T18:06:28.267Z,98176.49
2019-05-10T18:09:00.153Z,98174.39
2019-05-10T18:11:36.965Z,98178.28
2019-05-10T18:14:12.432Z,98181.80
2019-05-10T18:16:48.212Z,98181.80
2019-05-10T18:19:19.161Z,98187.20
2019-05-10T18:21:48.182Z,98191.69
2019-05-10T18:24:23.603Z,98196.89
2019-05-10T18:26:56.439Z,98194.27
2019-05-10T18:29:26.687Z,98190.66
2019-05-10T18:31:58.524Z,98193.69
2019-05-10T18:34:33.114Z,98197.51
2019-05-10T18:37:04.830Z,98197.51
2019-05-10T18:39:35.253Z,98194.89
2019-05-10T18:42:08.255Z,98199.55
2019-05-10T18:44:38.940Z,98203.70
2019-05-10T18:47:09.921Z,98202.85
2019-05-10T18:49:44.035Z,98200.27
2019-05-10T18:52:14.610Z,98204.70
2019-05-10T18:54:46.209Z,98201.02
2019-05-10T18:57:19.217Z,98205.28
2019-05-10T18:59:51.875Z,98206.26
2019-05-10T19:02:23.737Z,98209.17
2019-05-10T19:04:54.342Z,98210.41
2019-05-10T19:07:29.785Z,98213.96
2019-05-10T19:10:00.138Z,98213.81
2019-05-10T19:12:35.000Z,98212.84
2019-05-10T19:15:09.134Z,98210.89
2019-05-10T19:17:45.467Z,98216.91
2019-05-10T19:20:16.457Z,98207.98
2019-05-10T19:22:46.197Z,98205.95
2019-05-10T19:25:16.725Z,98210.81
2019-05-10T19:27:50.767Z,98209.77
2019-05-10T19:30:22.393Z,98207.03
2019-05-10T19:32:56.439Z,98210.84
2019-05-10T19:35:24.051Z,98210.94
2019-05-10T19:37:54.642Z,98217.76
2019-05-10T19:40:25.320Z,98211.15
2019-05-10T19:42:56.637Z,98211.56
2019-05-10T19:45:30.785Z,98206.08
2019-05-10T19:48:01.420Z,98208.36
2019-05-10T19:50:33.188Z,98214.11
2019-05-10T19:53:05.485Z,98227.92
2019-05-10T19:55:35.974Z,98227.73
2019-05-10T19:58:06.817Z,98230.16
2019-05-10T20:00:39.191Z,98235.13
2019-05-10T20:03:10.882Z,98232.08
2019-05-10T20:05:41.536Z,98228.56
2019-05-10T20:08:12.416Z,98227.33
2019-05-10T20:10:43.227Z,98222.93
2019-05-10T20:13:17.647Z,98222.44
2019-05-10T20:15:48.261Z,98222.16
2019-05-10T20:18:20.770Z,98221.89
2019-05-10T20:20:51.074Z,98222.93
2019-05-10T20:23:23.688Z,98221.28
2019-05-10T20:25:54.301Z,98223.00
2019-05-10T20:28:25.171Z,98223.63
2019-05-10T20:30:56.077Z,98218.59
2019-05-10T20:33:26.460Z,98229.39
2019-05-10T20:35:57.099Z,98223.98
2019-05-10T20:38:30.248Z,98223.23
2019-05-10T20:41:07.312Z,98222.56
2019-05-10T20:43:37.645Z,98225.44
2019-05-10T20:46:11.228Z,98219.98
2019-05-10T20:48:42.242Z,98222.31
2019-05-10T20:51:12.914Z,98222.77
2019-05-10T20:53:43.232Z,98225.00
2019-05-10T20:56:13.622Z,98213.56
2019-05-10T20:58:44.141Z,98220.59
2019-05-10T21:01:16.364Z,98216.77
2019-05-10T21:03:46.946Z,98215.20
2019-05-10T21:06:17.475Z,98211.14
2019-05-10T21:08:48.219Z,98212.72
2019-05-10T21:11:20.466Z,98209.52
2019-05-10T21:13:51.184Z,98215.55
2019-05-10T21:16:21.753Z,98212.58
2019-05-10T21:18:52.363Z,98214.05
2019-05-10T21:21:23.012Z,98215.41
2019-05-10T21:23:53.530Z,98214.36
2019-05-10T21:26:24.050Z,98211.13
2019-05-10T21:28:54.580Z,98218.00
2019-05-10T21:31:25.257Z,98213.59
2019-05-10T21:34:08.659Z,98217.95
2019-05-10T21:36:28.021Z,98207.09
2019-05-10T21:38:58.746Z,98217.02
2019-05-10T21:41:29.374Z,98220.47
2019-05-10T21:44:00.161Z,98219.27
2019-05-10T21:46:30.402Z,98216.75
2019-05-10T21:49:00.968Z,98220.89
2019-05-10T21:51:31.475Z,98221.61
2019-05-10T21:54:02.119Z,98217.37
2019-05-10T21:56:35.517Z,98220.92
2019-05-10T21:59:04.619Z,98217.77
2019-05-10T22:01:35.249Z,98215.30
2019-05-10T22:04:07.253Z,98220.11
2019-05-10T22:06:37.926Z,98211.08
2019-05-10T22:09:10.312Z,98217.28
2019-05-10T22:11:41.771Z,98216.91
2019-05-10T22:14:12.236Z,98211.55
2019-05-10T22:16:42.616Z,98218.89
2019-05-10T22:19:13.291Z,98226.26
2019-05-10T22:21:43.844Z,98228.38
2019-05-10T22:24:14.346Z,98224.14
2019-05-10T22:26:44.835Z,98226.15
2019-05-10T22:29:15.375Z,98229.47
2019-05-10T22:31:45.790Z,98225.10
2019-05-10T22:34:16.468Z,98233.63
2019-05-10T22:36:46.837Z,98228.05
2019-05-10T22:39:17.377Z,98229.09
2019-05-10T22:41:47.814Z,98225.97
2019-05-10T22:44:19.456Z,98231.38
2019-05-10T22:46:49.974Z,98231.33
2019-05-10T22:49:20.516Z,98238.20
2019-05-10T22:51:51.068Z,98234.45
2019-05-10T22:54:21.687Z,98229.33
2019-05-10T22:56:53.540Z,98236.72
2019-05-10T22:59:24.268Z,98240.00
2019-05-10T23:01:55.443Z,98230.52
2019-05-10T23:04:26.586Z,98237.88
2019-05-10T23:06:57.202Z,98236.34
2019-05-10T23:09:27.868Z,98246.72
2019-05-10T23:11:58.141Z,98243.11
2019-05-10T23:14:28.609Z,98243.85
2019-05-10T23:16:58.911Z,98239.69
2019-05-10T23:19:29.430Z,98248.81
2019-05-10T23:21:59.952Z,98237.44
2019-05-10T23:24:38.393Z,98245.61
2019-05-10T23:27:08.943Z,98245.81
2019-05-10T23:29:39.307Z,98250.13
2019-05-10T23:32:09.921Z,98251.78
2019-05-10T23:34:40.291Z,98253.47
2019-05-10T23:37:10.715Z,98244.16
2019-05-10T23:39:41.600Z,98242.91
2019-05-10T23:42:12.087Z,98242.66
2019-05-10T23:44:42.586Z,98246.70
2019-05-10T23:47:13.272Z,98249.17
2019-05-10T23:49:43.850Z,98253.52
2019-05-10T23:52:14.313Z,98258.84
2019-05-10T23:54:44.822Z,98254.73
2019-05-10T23:57:15.486Z,98258.39
2019-05-10T23:59:46.269Z,98257.70
